• Join FlightAware (Why Join?)
  • Login
  • US Flag 
01:23AM EDT


 

Airport Tracker/Info


-or-


 

Live Flight TrackerFlight Track Log ✈ LOF3385 ✈ 28-Jul-2013 ✈ KGRR - KORD

Flight Track Log - Related Links

Times and Time Zones

All times are in EDT time to prevent confusion due to time zone crossing. See the LOF3385 flight status page for this flight to view local times or setup timezone preferences in your user account.

Time Position Orientation Groundspeed Altitude Reporting Facility
EDT Latitude Longitude Course Direction KTS MPH feet Rate Location/Type
06:00AM 42.8694 -85.5775 248° West 173 199 2,500  Level Chicago Center
06:01AM 42.8422 -85.6469 242° Southwest 199 229 4,600 2,400 Climbing Chicago Center
06:02AM 42.8111 -85.7297 243° Southwest 234 269 7,300 2,460 Climbing Chicago Center
06:03AM 42.7792 -85.8136 243° Southwest 244 281 9,600 1,800 Climbing Chicago Center
06:04AM 42.7318 -85.8943 248° West  Level FlightAware Approximate
06:04AM 42.7544 -85.9139 251° West 269 310 11,000  Level Chicago Center
06:05AM 42.7082 -85.9727 248° West  Level FlightAware Approximate
06:05AM 42.7253 -86.0244 250° West 292 336 12,900  Level Chicago Center
06:06AM 42.7006 -86.1331 253° West 300 345 15,400 1,560 Climbing Chicago Center
06:07AM 42.6739 -86.2397 251° West 297 342 16,100 300 Climbing Chicago Center
06:08AM 42.6450 -86.3519 251° West 310 357 16,100  Level Chicago Center
06:09AM 42.6175 -86.4625 251° West 311 358 16,100  Level Chicago Center
06:10AM 42.5911 -86.5703 252° West 303 349 16,100  Level Chicago Center
06:11AM 42.5617 -86.6819 250° West 311 358 16,100  Level Chicago Center
06:12AM 42.5333 -86.7969 252° West 321 369 16,100 -900 Level Chicago Center
06:13AM 42.5022 -86.9136 250° West 329 379 14,400 -1,560 Descending Chicago Center
06:14AM 42.4744 -87.0239 251° West 313 360 13,000 -1,440 Descending Chicago Center
06:15AM 42.4478 -87.1281 251° West 297 342 11,500 -1,500 Descending Chicago Center
06:16AM 42.4214 -87.2272 250° West 285 328 10,100 -720 Descending Chicago Center
06:17AM 42.3956 -87.3289 251° West 287 330 10,100 -540 Level Chicago Center
06:18AM 42.3689 -87.4233 249° West 256 295 9,100 -1,080 Descending Chicago Center
06:19AM 42.3450 -87.5072 249° West 241 277 8,000 -780 Descending Chicago Center
06:20AM 42.2939 -87.5461 209° Southwest 244 281 7,600 -540 Descending Chicago Center
06:21AM 42.2244 -87.5303 170° South 248 285 7,000 -300 Descending Chicago Center
06:22AM 42.1575 -87.5114 168° South 246 283 7,000 -420 Level Chicago Center
06:23AM 42.0928 -87.4931 168° South 239 275 6,200 -1,020 Descending Chicago Center
06:24AM 42.0364 -87.4758 167° South 239 275 5,000 -600 Descending Chicago Center
06:25AM 41.9650 -87.4553 168° South 240 276 5,000 -360 Level Chicago Center
06:27AM 41.9667 -87.6500 271° West 169 194 4,000 -540 Descending Chicago TRACON
06:28AM 41.9667 -87.7000 270° West 172 198 3,300 -840 Descending Chicago TRACON
06:29AM 41.9667 -87.7667 270° West 153 176 2,500 -720 Descending Chicago TRACON
06:30AM 41.9667 -87.8000 270° West 121 139 2,000 -600 Descending Chicago TRACON
06:31AM 41.9833 -87.8500 294° West 126 145 1,300 -660 Descending Chicago TRACON